KITH/ITH METAR and TAF weather

Enter ICAO airport designator
Station Type Date Time Source
KITH METAR 2019/09/21 20:56 UTC NOAA

KITH 212056Z 25005KT 10SM CLR 27/14 A3019 RMK AO2 SLP219 T02670139 56011


Station Type Date Time Source
KITH Decoded METAR 2019/09/21 20:56 UTC NOAA

Ithaca, Ithaca Tompkins Regional Airport, NY, United States (KITH) 42-29-27N 076-27-30W
Sep 21, 2019 - 04:56 PM EDT / 2019.09.21 2056 UTC
Wind: from the WSW (250 degrees) at 6 MPH (5 KT):0
Visibility: 10 mile(s):0
Sky conditions: clear
Temperature: 80.1 F (26.7 C)
Dew Point: 57.0 F (13.9 C)
Relative Humidity: 45%
Pressure (altimeter): 30.19 in. Hg (1022 hPa)
Pressure tendency: 0.03 inches (1.1 hPa) lower than three hours ago
ob: KITH 212056Z 25005KT 10SM CLR 27/14 A3019 RMK AO2 SLP219 T02670139 56011
cycle: 21

Station Type Date Time Source
KITH TAF 2019/09/21 18:39 UTC NOAA

TAF
AMD KITH 211735Z 2118/2218 VRB04KT P6SM FEW090 SCT250
FM221200 17005KT P6SM FEW100 SCT250
FM221400 20007KT P6SM FEW090 SCT250
FM221700 22009KT P6SM SCT060 BKN150

Example: see airport list